Time;durP1;ratioP1;P1;durP2;ratioP2;P2;SDS_P1;SDS_P2;PMS_P1;PMS_P2;Temp;Humidity;BMP_temperature;BMP_pressure;BME280_temperature;BME280_humidity;BME280_pressure;Samples;Min_cycle;Max_cycle;Signal;HPM_P1;HPM_P2
2023/02/04 00:00:50;;;;;;;9.67;2.67;;;;;;;7.92;59.64;98838.72;8448918;28;20421;-66
2023/02/04 00:04:53;;;;;;;10.07;2.60;;;;;;;8.02;59.62;98842.78;8448791;28;20522;-66
2023/02/04 00:08:56;;;;;;;8.90;2.57;;;;;;;8.02;59.43;98835.06;8448787;28;20293;-66
2023/02/04 00:13:01;;;;;;;11.20;2.90;;;;;;;7.93;59.35;98832.66;8448538;28;20239;-65
2023/02/04 00:17:06;;;;;;;9.73;2.57;;;;;;;7.86;59.01;98850.84;8448515;28;20238;-65
2023/02/04 00:21:09;;;;;;;11.50;2.73;;;;;;;8.06;58.23;98859.06;8448515;28;20239;-66
2023/02/04 00:25:12;;;;;;;11.73;2.73;;;;;;;8.27;57.69;98846.59;8448203;28;20229;-66
2023/02/04 00:29:16;;;;;;;13.03;2.97;;;;;;;7.97;57.90;98852.34;8448076;28;20234;-66
2023/02/04 00:33:19;;;;;;;10.63;3.13;;;;;;;8.05;57.76;98851.34;8447756;28;20238;-66
2023/02/04 00:37:22;;;;;;;10.07;2.60;;;;;;;8.18;57.50;98850.22;8448084;28;20227;-66
2023/02/04 00:41:24;;;;;;;12.13;2.70;;;;;;;7.57;57.25;98804.13;8447944;28;20424;-66
2023/02/04 00:45:29;;;;;;;11.67;2.67;;;;;;;8.09;57.43;98869.31;8447122;28;20231;-66
2023/02/04 00:49:33;;;;;;;10.80;2.63;;;;;;;8.01;57.66;98879.81;8447058;28;20546;-66
2023/02/04 00:53:36;;;;;;;9.37;2.90;;;;;;;8.35;56.76;98876.53;8446598;28;20234;-66
2023/02/04 00:57:39;;;;;;;9.13;2.43;;;;;;;8.11;57.22;98867.56;8446705;28;20234;-66
2023/02/04 01:01:43;;;;;;;10.90;2.90;;;;;;;8.07;57.63;98881.38;8445998;28;20238;-66
2023/02/04 01:05:46;;;;;;;10.80;2.97;;;;;;;7.89;57.14;98886.91;8446273;28;20243;-66
2023/02/04 01:09:49;;;;;;;14.40;3.07;;;;;;;8.05;57.04;98892.63;8446389;28;20223;-67
2023/02/04 01:13:52;;;;;;;9.83;2.57;;;;;;;7.99;56.94;98903.91;8446057;28;20311;-67
2023/02/04 01:17:56;;;;;;;8.63;2.57;;;;;;;7.79;56.69;98901.72;8445957;28;20219;-66
2023/02/04 01:21:58;;;;;;;10.90;3.17;;;;;;;8.06;56.30;98910.66;8446441;28;20235;-66
2023/02/04 01:26:01;;;;;;;12.43;2.83;;;;;;;7.68;56.28;98876.09;8445977;28;20242;-66
2023/02/04 01:30:05;;;;;;;10.80;2.90;;;;;;;7.67;57.02;98909.66;8446088;28;20226;-66
2023/02/04 01:34:09;;;;;;;9.00;2.40;;;;;;;7.78;57.10;98921.47;8445614;28;20254;-66
2023/02/04 01:38:12;;;;;;;9.27;2.33;;;;;;;7.61;56.65;98906.28;8445463;28;20228;-66
2023/02/04 01:42:15;;;;;;;9.57;2.40;;;;;;;7.75;56.48;98938.72;8445508;28;20246;-66
2023/02/04 01:46:19;;;;;;;7.63;2.73;;;;;;;7.76;54.77;98930.97;8444804;28;20241;-66
2023/02/04 01:50:23;;;;;;;12.37;2.67;;;;;;;7.63;55.08;98937.22;8444972;28;20238;-66
2023/02/04 01:54:26;;;;;;;11.83;2.73;;;;;;;7.42;54.07;98941.00;8445201;28;20270;-66
2023/02/04 01:58:30;;;;;;;10.00;2.50;;;;;;;7.60;53.66;98914.06;8444953;28;20239;-66
2023/02/04 02:02:42;;;;;;;9.93;2.30;;;;;;;7.37;53.64;98930.75;8444764;28;20227;-66
2023/02/04 02:06:49;;;;;;;7.43;2.60;;;;;;;7.89;53.24;98933.34;8443310;28;20507;-66
2023/02/04 02:10:52;;;;;;;9.90;2.40;;;;;;;7.80;54.42;98947.22;8444356;28;20224;-66
2023/02/04 02:14:55;;;;;;;10.87;2.80;;;;;;;8.05;54.96;98941.63;8443867;28;20334;-66
2023/02/04 02:18:58;;;;;;;12.47;2.80;;;;;;;8.07;56.00;98950.19;8444134;28;20227;-66
2023/02/04 02:23:06;;;;;;;8.90;2.60;;;;;;;8.18;55.69;98951.69;8443892;28;20388;-67
2023/02/04 02:27:12;;;;;;;9.87;3.17;;;;;;;7.82;56.11;98954.09;8444108;28;20227;-67
2023/02/04 02:31:15;;;;;;;7.07;2.23;;;;;;;7.93;55.60;98942.72;8443805;28;20223;-66
2023/02/04 02:35:18;;;;;;;10.30;2.63;;;;;;;7.67;55.62;98946.59;8443779;28;20227;-66
2023/02/04 02:39:22;;;;;;;8.93;2.47;;;;;;;7.42;54.39;98920.38;8443745;28;20223;-66
2023/02/04 02:43:27;;;;;;;9.27;2.40;;;;;;;7.46;54.17;98955.53;8443678;28;20224;-66
2023/02/04 02:47:30;;;;;;;8.83;2.43;;;;;;;7.39;53.87;98943.63;8443356;28;20227;-66
2023/02/04 02:51:33;;;;;;;10.03;2.43;;;;;;;7.46;52.94;98965.84;8443699;28;20224;-66
2023/02/04 02:55:36;;;;;;;10.30;2.67;;;;;;;7.51;52.83;98982.09;8443275;28;20230;-66
2023/02/04 02:59:40;;;;;;;6.20;2.20;;;;;;;7.38;53.49;98975.41;8443517;28;20327;-66
2023/02/04 03:03:46;;;;;;;9.90;2.30;;;;;;;6.98;53.56;98971.69;8443037;28;20534;-66
2023/02/04 03:07:48;;;;;;;11.30;2.33;;;;;;;7.58;53.26;98998.31;8443167;28;20231;-66
2023/02/04 03:11:51;;;;;;;10.70;2.43;;;;;;;7.36;54.08;98992.63;8443272;28;20219;-66
2023/02/04 03:15:56;;;;;;;10.53;2.33;;;;;;;7.47;53.85;99001.06;8443079;28;20370;-66
2023/02/04 03:19:59;;;;;;;13.03;2.90;;;;;;;7.34;53.75;99027.88;8449079;28;20227;-66
2023/02/04 03:24:02;;;;;;;10.73;2.47;;;;;;;7.18;54.46;99035.00;8449857;28;20239;-66
2023/02/04 03:28:05;;;;;;;11.77;2.30;;;;;;;7.36;54.24;99034.72;8449657;28;20223;-67
2023/02/04 03:32:09;;;;;;;11.00;2.33;;;;;;;6.57;54.85;98897.63;8449490;28;20259;-66
2023/02/04 03:36:12;;;;;;;11.70;2.50;;;;;;;7.63;54.97;99040.31;8449238;28;20261;-66
2023/02/04 03:40:15;;;;;;;11.23;2.50;;;;;;;7.57;54.86;99058.47;8449553;28;20227;-66
2023/02/04 03:44:18;;;;;;;10.70;2.20;;;;;;;7.71;54.96;99064.28;8448876;28;20230;-66
2023/02/04 03:48:22;;;;;;;10.97;2.13;;;;;;;7.68;55.04;99058.31;8448831;28;20411;-67
2023/02/04 03:52:25;;;;;;;10.33;2.40;;;;;;;7.43;55.53;99069.00;8448800;28;20227;-66
2023/02/04 03:56:28;;;;;;;9.43;2.60;;;;;;;7.26;56.27;99076.09;8448749;28;20227;-66
2023/02/04 04:00:31;;;;;;;9.23;2.40;;;;;;;7.02;57.34;99078.09;8448649;28;20223;-66
2023/02/04 04:04:36;;;;;;;10.47;2.47;;;;;;;7.20;57.08;99075.31;8448598;28;20411;-66
2023/02/04 04:08:39;;;;;;;12.53;2.90;;;;;;;7.59;55.48;99075.63;8447999;28;20238;-67
2023/02/04 04:12:42;;;;;;;10.20;2.87;;;;;;;7.54;56.37;99072.28;8447980;28;20223;-66
2023/02/04 04:16:45;;;;;;;10.90;2.83;;;;;;;7.59;56.05;99085.06;8448072;28;20239;-66
2023/02/04 04:20:49;;;;;;;11.93;2.70;;;;;;;7.44;56.17;99087.03;8448100;28;20382;-66
2023/02/04 04:24:52;;;;;;;9.83;2.17;;;;;;;7.40;56.77;99102.53;8447865;28;20234;-67
2023/02/04 04:28:54;;;;;;;8.47;2.57;;;;;;;7.38;56.60;99112.84;8446824;28;20238;-67
2023/02/04 04:32:57;;;;;;;12.17;2.73;;;;;;;6.90;58.46;99130.63;8447021;28;20231;-67
2023/02/04 04:37:01;;;;;;;12.67;2.50;;;;;;;7.30;57.70;99130.16;8447789;28;20235;-67
2023/02/04 04:41:05;;;;;;;12.13;2.70;;;;;;;7.04;58.16;99135.59;8447401;28;20228;-67
2023/02/04 04:45:09;;;;;;;10.43;2.57;;;;;;;7.24;58.20;99145.69;8447245;28;20227;-67
2023/02/04 04:49:12;;;;;;;10.93;3.03;;;;;;;7.02;58.76;99157.94;8447136;28;20224;-67
2023/02/04 04:53:16;;;;;;;11.13;2.30;;;;;;;7.67;57.29;99168.31;8447239;28;20293;-67
2023/02/04 04:57:19;;;;;;;14.77;3.00;;;;;;;7.45;57.86;99180.66;8446937;28;20231;-67
2023/02/04 05:01:22;;;;;;;11.97;2.67;;;;;;;7.53;57.06;99177.97;8446789;28;20236;-67
2023/02/04 05:05:24;;;;;;;14.90;2.83;;;;;;;7.13;58.57;99175.88;8446516;28;20227;-67
2023/02/04 05:09:29;;;;;;;14.33;2.67;;;;;;;7.00;59.09;99188.03;8446939;28;20231;-67
2023/02/04 05:13:32;;;;;;;9.70;2.80;;;;;;;7.17;58.53;99205.88;8446742;28;20235;-67
2023/02/04 05:17:35;;;;;;;13.50;2.87;;;;;;;7.18;58.98;99207.59;8446427;28;20223;-67
2023/02/04 05:21:38;;;;;;;13.17;3.00;;;;;;;7.44;58.80;99210.72;8446239;28;20227;-66
2023/02/04 05:25:43;;;;;;;14.87;2.50;;;;;;;7.63;58.49;99215.66;8446039;28;20223;-67
2023/02/04 05:29:45;;;;;;;9.33;2.30;;;;;;;7.95;58.14;99235.00;8445839;28;20253;-67
2023/02/04 05:33:48;;;;;;;13.20;3.00;;;;;;;7.80;59.01;99238.63;8445795;28;20231;-67
2023/02/04 05:37:51;;;;;;;9.63;2.50;;;;;;;7.68;59.42;99244.81;8445941;28;20238;-67
2023/02/04 05:41:55;;;;;;;11.40;3.53;;;;;;;7.72;60.18;99251.63;8445917;28;20298;-67
2023/02/04 05:45:58;;;;;;;11.30;2.30;;;;;;;7.64;59.35;99254.31;8445690;28;20554;-67
2023/02/04 05:50:01;;;;;;;9.07;1.80;;;;;;;7.21;60.84;99272.81;8445487;28;20262;-67
2023/02/04 05:54:04;;;;;;;5.07;1.53;;;;;;;7.46;60.95;99264.81;8445242;28;20223;-67
2023/02/04 05:58:08;;;;;;;7.00;1.90;;;;;;;7.40;61.03;99258.00;8445237;28;20423;-67
2023/02/04 06:02:11;;;;;;;7.17;1.90;;;;;;;7.24;61.36;99270.22;8445179;28;20227;-67
2023/02/04 06:06:14;;;;;;;7.63;2.23;;;;;;;7.13;61.58;99294.38;8445042;28;20293;-67
2023/02/04 06:10:17;;;;;;;9.53;2.00;;;;;;;7.37;60.88;99301.03;8444982;28;20220;-67
2023/02/04 06:14:21;;;;;;;8.37;1.77;;;;;;;7.15;60.20;99316.66;8444822;28;20227;-67
2023/02/04 06:18:24;;;;;;;7.97;1.83;;;;;;;7.08;60.73;99324.47;8444319;28;20231;-67
2023/02/04 06:22:27;;;;;;;6.60;2.00;;;;;;;7.37;60.11;99329.38;8444984;28;20227;-67
2023/02/04 06:26:30;;;;;;;8.70;2.37;;;;;;;7.37;60.29;99329.38;8444754;28;20538;-67
2023/02/04 06:30:36;;;;;;;6.87;2.47;;;;;;;7.60;60.14;99339.47;8444311;28;20234;-67
2023/02/04 06:34:39;;;;;;;3.80;1.80;;;;;;;7.71;60.04;99353.09;8444269;28;20228;-67
2023/02/04 06:38:41;;;;;;;9.40;2.03;;;;;;;7.72;59.55;99361.66;8443901;28;20223;-67
2023/02/04 06:42:44;;;;;;;7.13;1.70;;;;;;;6.92;62.77;99375.25;8444056;28;20228;-67
2023/02/04 06:46:48;;;;;;;5.73;1.03;;;;;;;6.97;59.63;99386.38;8443332;28;20223;-67
2023/02/04 06:50:51;;;;;;;1.47;0.73;;;;;;;6.78;59.39;99398.53;8444108;28;20305;-67
2023/02/04 06:54:54;;;;;;;1.37;0.70;;;;;;;6.78;59.36;99401.09;8443779;28;20253;-67
2023/02/04 06:58:57;;;;;;;1.10;0.63;;;;;;;7.07;57.69;99408.63;8444049;28;20231;-67
2023/02/04 07:03:01;;;;;;;2.43;0.80;;;;;;;6.91;57.79;99400.16;8444051;28;20234;-66
2023/02/04 07:07:04;;;;;;;1.53;0.60;;;;;;;7.20;57.54;99401.66;8443988;28;20227;-67
2023/02/04 07:11:07;;;;;;;1.10;0.60;;;;;;;7.08;57.93;99394.03;8444092;28;20223;-68
2023/02/04 07:15:10;;;;;;;1.90;0.70;;;;;;;7.26;57.60;99421.38;8443798;28;20224;-67
2023/02/04 07:19:15;;;;;;;1.50;0.70;;;;;;;7.30;57.37;99438.53;8443892;28;20232;-67
2023/02/04 07:23:17;;;;;;;2.47;0.83;;;;;;;7.47;57.31;99448.72;8444090;28;20227;-67
2023/02/04 07:27:20;;;;;;;2.83;1.00;;;;;;;7.58;57.25;99445.16;8443706;28;20431;-67
2023/02/04 07:31:23;;;;;;;2.60;0.87;;;;;;;7.70;56.91;99459.66;8443239;28;20228;-67
2023/02/04 07:35:27;;;;;;;3.23;0.87;;;;;;;7.75;57.01;99464.78;8443509;28;20228;-67
2023/02/04 07:39:30;;;;;;;1.60;0.73;;;;;;;7.73;56.70;99477.72;8443344;28;20246;-67
2023/02/04 07:43:33;;;;;;;2.67;1.00;;;;;;;7.89;55.69;99480.16;8443496;28;20386;-67
2023/02/04 07:47:36;;;;;;;2.37;0.87;;;;;;;7.80;55.97;99488.81;8443446;28;20243;-67
2023/02/04 07:51:41;;;;;;;2.03;0.73;;;;;;;7.76;55.63;99487.13;8443439;28;20223;-67
2023/02/04 07:55:44;;;;;;;0.90;0.63;;;;;;;7.97;55.78;99498.97;8439366;28;20230;-67
2023/02/04 07:59:47;;;;;;;1.13;0.80;;;;;;;7.83;55.51;99489.63;8442888;28;20227;-68
2023/02/04 08:03:50;;;;;;;1.00;0.90;;;;;;;8.04;54.69;99513.53;8443561;28;20283;-67
2023/02/04 08:07:54;;;;;;;2.03;0.93;;;;;;;7.99;54.75;99533.34;8448413;28;20227;-66
2023/02/04 08:11:58;;;;;;;1.00;0.80;;;;;;;8.13;54.92;99540.97;8448700;28;20223;-66
2023/02/04 08:16:01;;;;;;;0.70;0.70;;;;;;;8.23;54.77;99548.63;8447536;28;20273;-66
2023/02/04 08:20:05;;;;;;;3.30;0.80;;;;;;;7.82;54.07;99507.69;8449010;28;20227;-65
2023/02/04 08:24:09;;;;;;;1.00;0.70;;;;;;;8.34;53.55;99550.22;8449096;28;20245;-66
2023/02/04 08:28:12;;;;;;;2.07;0.90;;;;;;;8.28;53.83;99547.72;8448412;28;20224;-66
2023/02/04 08:32:15;;;;;;;1.37;0.90;;;;;;;8.39;53.55;99561.38;8448321;28;20227;-67
2023/02/04 08:36:18;;;;;;;1.10;0.83;;;;;;;8.46;53.28;99565.63;8448026;28;20227;-66
2023/02/04 08:40:22;;;;;;;2.93;2.57;;;;;;;8.32;53.04;99570.03;8448165;28;20384;-66
2023/02/04 08:44:25;;;;;;;1.67;1.30;;;;;;;8.28;52.70;99565.78;8447720;28;20388;-66
2023/02/04 08:48:28;;;;;;;1.13;1.03;;;;;;;8.53;52.45;99574.16;8447140;28;20535;-67
2023/02/04 08:52:31;;;;;;;0.77;0.77;;;;;;;7.30;53.48;99593.16;8448147;28;20247;-67
2023/02/04 08:56:35;;;;;;;2.00;1.80;;;;;;;8.00;51.98;99600.44;8447688;28;20234;-67
2023/02/04 09:00:39;;;;;;;1.20;1.10;;;;;;;7.96;51.15;99609.06;8447099;28;20215;-67
2023/02/04 09:04:42;;;;;;;2.10;1.93;;;;;;;7.78;51.81;99609.19;8447013;28;20239;-67
2023/02/04 09:08:45;;;;;;;2.23;2.13;;;;;;;8.35;50.94;99619.91;8447161;28;20529;-67
2023/02/04 09:12:54;;;;;;;9.60;8.70;;;;;;;7.73;50.51;99626.41;8446514;28;20230;-68
2023/02/04 09:16:57;;;;;;;1.20;1.07;;;;;;;8.05;50.60;99612.44;8445379;28;20319;-68
2023/02/04 09:21:00;;;;;;;1.47;1.20;;;;;;;8.08;49.56;99633.06;8446801;28;20234;-68
2023/02/04 09:25:03;;;;;;;2.27;2.17;;;;;;;7.92;47.95;99635.75;8446643;28;20260;-68
2023/02/04 09:29:08;;;;;;;2.97;2.67;;;;;;;7.91;48.94;99634.03;8446524;28;20371;-68
2023/02/04 09:33:12;;;;;;;1.87;1.77;;;;;;;7.65;49.74;99623.88;8445825;28;20640;-68
2023/02/04 09:37:15;;;;;;;1.70;1.60;;;;;;;7.93;49.02;99652.06;8444669;28;20227;-68
2023/02/04 09:41:18;;;;;;;0.87;0.70;;;;;;;8.36;48.35;99656.94;8445599;28;20227;-68
2023/02/04 09:45:25;;;;;;;2.53;1.90;;;;;;;7.90;47.91;99623.72;8445342;28;20228;-68
2023/02/04 09:49:28;;;;;;;1.10;0.97;;;;;;;8.39;48.58;99662.91;8445660;28;20236;-68
2023/02/04 09:53:31;;;;;;;1.80;1.13;;;;;;;8.28;49.38;99675.06;8445907;28;20515;-68
2023/02/04 09:57:34;;;;;;;1.30;1.20;;;;;;;8.75;47.68;99689.31;8445145;28;20227;-68
2023/02/04 10:01:39;;;;;;;0.87;0.80;;;;;;;8.69;47.84;99691.94;8444675;28;20223;-68
2023/02/04 10:05:42;;;;;;;1.20;1.10;;;;;;;8.68;48.68;99695.41;8444571;28;20239;-68
2023/02/04 10:09:45;;;;;;;1.07;0.97;;;;;;;8.51;48.23;99700.72;8444175;28;20224;-67
2023/02/04 10:13:49;;;;;;;0.70;0.70;;;;;;;8.42;47.64;99674.97;8444605;28;20224;-67
2023/02/04 10:17:55;;;;;;;1.10;1.10;;;;;;;8.66;47.79;99709.19;8443953;28;20228;-67
2023/02/04 10:21:58;;;;;;;1.30;1.20;;;;;;;8.62;46.63;99703.19;8444276;28;20235;-67
2023/02/04 10:26:01;;;;;;;1.90;0.80;;;;;;;8.81;47.60;99703.88;8443812;28;20249;-67
2023/02/04 10:30:05;;;;;;;1.00;0.90;;;;;;;8.72;45.20;99685.88;8443331;28;20227;-67
2023/02/04 10:34:15;;;;;;;0.60;0.50;;;;;;;10.47;42.18;99677.63;8443009;28;20296;-68
2023/02/04 10:38:20;;;;;;;0.60;0.60;;;;;;;11.33;39.38;99692.47;8443513;28;20229;-68
2023/02/04 10:42:25;;;;;;;0.60;0.60;;;;;;;10.22;40.96;99703.03;8443758;28;20240;-68
2023/02/04 10:46:30;;;;;;;1.53;0.97;;;;;;;9.44;41.69;99700.63;8443389;28;20221;-68
2023/02/04 10:50:34;;;;;;;1.10;1.00;;;;;;;9.58;43.07;99680.63;8443718;28;20438;-68
2023/02/04 10:54:38;;;;;;;1.33;1.23;;;;;;;7.80;43.06;99703.72;8443804;28;20226;-68
2023/02/04 10:58:41;;;;;;;0.87;0.53;;;;;;;6.82;45.27;99704.09;8443779;28;20233;-68
2023/02/04 11:02:45;;;;;;;2.47;0.90;;;;;;;9.16;69.69;99718.19;8443344;28;20242;-67
2023/02/04 11:06:51;;;;;;;1.27;0.60;;;;;;;9.37;46.82;99693.84;8443754;28;20329;-67
2023/02/04 11:10:58;;;;;;;1.37;0.60;;;;;;;8.33;44.50;99701.69;8443727;28;20431;-68
2023/02/04 11:15:00;;;;;;;0.50;0.50;;;;;;;8.12;44.45;99710.44;8443666;28;20220;-66
2023/02/04 11:19:05;;;;;;;0.40;0.40;;;;;;;8.25;44.71;99715.53;8443854;28;20421;-67
2023/02/04 11:23:31;;;;;;;1.17;0.93;;;;;;;8.91;42.81;99710.69;8443564;28;20609;-66
2023/02/04 11:27:39;;;;;;;0.93;0.50;;;;;;;8.93;42.52;99702.91;8440594;28;20230;-66
2023/02/04 11:31:50;;;;;;;0.70;0.67;;;;;;;8.48;42.67;99716.22;8442663;28;20223;-67
2023/02/04 11:36:03;;;;;;;0.43;0.43;;;;;;;9.41;41.89;99726.53;8443052;28;20238;-67
2023/02/04 11:40:21;;;;;;;0.70;0.50;;;;;;;8.70;41.79;99704.00;8447337;28;20228;-67
2023/02/04 11:44:24;;;;;;;1.13;0.60;;;;;;;8.74;41.65;99707.41;8449550;28;20227;-67
2023/02/04 11:48:27;;;;;;;1.40;0.70;;;;;;;9.53;48.10;99713.44;8448933;28;20240;-67
2023/02/04 11:52:30;;;;;;;1.30;1.20;;;;;;;9.57;41.71;99714.25;8449791;28;20405;-67
2023/02/04 11:56:35;;;;;;;1.70;1.10;;;;;;;9.70;42.00;99718.41;8449471;28;20533;-67
2023/02/04 12:00:38;;;;;;;1.03;0.93;;;;;;;9.61;40.59;99723.69;8449023;28;20224;-67
2023/02/04 12:04:50;;;;;;;2.70;2.50;;;;;;;9.71;40.79;99717.53;8449127;28;20231;-67
2023/02/04 12:09:04;;;;;;;1.20;1.10;;;;;;;9.87;40.41;99725.09;8448255;28;20486;-67
2023/02/04 12:13:22;;;;;;;1.77;1.67;;;;;;;9.85;40.78;99729.44;8448463;28;20457;-67
2023/02/04 12:17:25;;;;;;;0.40;0.40;;;;;;;10.09;40.03;99728.22;8448026;28;20234;-67
2023/02/04 12:21:28;;;;;;;1.00;1.00;;;;;;;9.81;40.76;99738.13;8448228;28;20221;-67
2023/02/04 12:25:31;;;;;;;1.67;0.60;;;;;;;9.37;38.38;99728.28;8448193;28;20229;-67
2023/02/04 12:29:36;;;;;;;0.47;0.47;;;;;;;9.55;39.73;99737.56;8448252;28;20225;-67
2023/02/04 12:33:39;;;;;;;0.90;0.80;;;;;;;9.36;40.71;99742.09;8448170;28;20225;-67
2023/02/04 12:37:42;;;;;;;1.80;1.30;;;;;;;9.58;40.13;99747.88;8447745;28;20314;-67
2023/02/04 12:41:45;;;;;;;125.33;91.07;;;;;;;9.71;44.69;99748.59;8448114;28;20232;-67
2023/02/04 12:45:49;;;;;;;364.37;274.90;;;;;;;10.46;56.42;99745.88;8447607;28;20241;-67
2023/02/04 12:49:52;;;;;;;75.97;52.43;;;;;;;10.04;46.78;99749.03;8446764;28;20241;-67
2023/02/04 12:53:54;;;;;;;64.60;48.00;;;;;;;10.48;51.10;99752.72;8448240;28;20237;-67
2023/02/04 12:57:57;;;;;;;1.00;1.00;;;;;;;9.64;40.04;99748.69;8447734;28;20525;-68
2023/02/04 13:02:02;;;;;;;1.20;1.10;;;;;;;8.80;41.09;99655.69;8447234;28;20230;-67
2023/02/04 13:06:05;;;;;;;2.00;1.30;;;;;;;9.40;41.59;99748.09;8447364;28;20233;-67
2023/02/04 13:10:10;;;;;;;1.80;1.50;;;;;;;9.28;41.49;99750.81;8447336;28;20226;-67
2023/02/04 13:14:13;;;;;;;0.70;0.70;;;;;;;9.33;41.23;99736.13;8447342;28;20227;-67
2023/02/04 13:18:18;;;;;;;0.70;0.70;;;;;;;9.37;41.10;99748.97;8446560;28;20233;-68
2023/02/04 13:22:21;;;;;;;1.33;1.20;;;;;;;9.39;40.84;99747.22;8447066;28;20237;-68
2023/02/04 13:26:23;;;;;;;0.60;0.60;;;;;;;9.41;41.41;99739.47;8446877;28;20235;-67
2023/02/04 13:30:27;;;;;;;0.50;0.50;;;;;;;9.49;40.95;99758.31;8446600;28;20238;-67
2023/02/04 13:34:31;;;;;;;1.40;1.30;;;;;;;9.35;41.04;99750.72;8445637;28;20291;-67
2023/02/04 13:38:34;;;;;;;1.20;0.67;;;;;;;9.32;41.83;99747.31;8445285;28;20257;-67
2023/02/04 13:42:37;;;;;;;3.43;1.93;;;;;;;9.14;41.34;99750.97;8445372;28;20240;-67
2023/02/04 13:46:40;;;;;;;1.20;1.00;;;;;;;9.31;41.96;99763.69;8444872;28;20229;-66
2023/02/04 13:50:44;;;;;;;0.90;0.90;;;;;;;9.15;42.16;99755.25;8444282;28;20228;-66
2023/02/04 13:54:47;;;;;;;1.53;1.10;;;;;;;8.85;42.63;99753.81;8444878;28;20524;-66
2023/02/04 13:58:50;;;;;;;2.20;1.10;;;;;;;9.06;42.11;99763.94;8444751;28;20313;-66
2023/02/04 14:02:55;;;;;;;2.20;1.00;;;;;;;9.22;42.16;99759.50;8443771;28;20509;-67
2023/02/04 14:06:59;;;;;;;1.40;1.00;;;;;;;9.14;41.56;99769.06;8443698;28;20434;-67
2023/02/04 14:11:02;;;;;;;1.73;1.30;;;;;;;9.33;41.86;99775.75;8444265;28;20464;-67
2023/02/04 14:15:05;;;;;;;3.80;3.40;;;;;;;9.25;42.04;99759.44;8443670;28;20226;-66
2023/02/04 14:19:08;;;;;;;4.87;3.77;;;;;;;9.24;41.60;99778.44;8443567;28;20235;-67
2023/02/04 14:23:12;;;;;;;1.50;1.40;;;;;;;8.97;41.75;99777.81;8443631;28;20228;-66
2023/02/04 14:27:15;;;;;;;11.47;9.10;;;;;;;9.16;41.99;99775.91;8443161;28;20223;-65
2023/02/04 14:31:18;;;;;;;3.07;2.87;;;;;;;9.28;42.16;99781.84;8443360;28;20227;-66
2023/02/04 14:35:21;;;;;;;3.40;2.20;;;;;;;9.16;42.86;99757.81;8444037;28;20518;-66
2023/02/04 14:39:25;;;;;;;1.90;1.70;;;;;;;8.98;42.52;99779.50;8444112;28;20255;-66
2023/02/04 14:43:28;;;;;;;2.10;1.90;;;;;;;9.63;42.11;99789.19;8444150;28;20561;-66
2023/02/04 14:47:31;;;;;;;1.30;1.20;;;;;;;9.78;40.33;99790.75;8444143;28;20227;-66
2023/02/04 14:51:34;;;;;;;2.10;1.40;;;;;;;9.14;42.62;99787.16;8443831;28;20237;-66
2023/02/04 14:55:38;;;;;;;5.30;3.63;;;;;;;9.40;41.90;99794.63;8443913;28;20230;-66
2023/02/04 14:59:41;;;;;;;2.17;1.63;;;;;;;9.39;41.71;99792.94;8443606;28;20233;-66
2023/02/04 15:03:44;;;;;;;2.60;2.40;;;;;;;9.54;41.45;99797.94;8443421;28;20225;-66
2023/02/04 15:07:47;;;;;;;2.90;2.70;;;;;;;9.42;41.75;99802.38;8443560;28;20234;-66
2023/02/04 15:11:51;;;;;;;3.63;2.83;;;;;;;9.57;40.28;99745.31;8443732;28;20233;-65
2023/02/04 15:15:54;;;;;;;1.07;0.97;;;;;;;9.64;40.91;99803.00;8449527;28;20408;-65
2023/02/04 15:19:57;;;;;;;2.40;2.20;;;;;;;9.24;40.73;99799.09;8450345;28;20236;-65
2023/02/04 15:24:00;;;;;;;1.20;1.10;;;;;;;9.36;40.85;99804.13;8450400;28;20548;-65
2023/02/04 15:28:04;;;;;;;2.10;1.90;;;;;;;9.40;40.54;99807.56;8450155;28;20226;-66
2023/02/04 15:32:08;;;;;;;2.27;1.40;;;;;;;9.36;40.64;99806.72;8450310;28;20291;-65
2023/02/04 15:36:11;;;;;;;1.77;1.67;;;;;;;9.29;41.12;99806.81;8448773;28;20233;-65
2023/02/04 15:40:14;;;;;;;2.20;2.00;;;;;;;8.98;41.54;99796.75;8449777;28;20233;-66
2023/02/04 15:44:20;;;;;;;2.40;2.20;;;;;;;8.80;42.54;99808.97;8449726;28;20220;-66
2023/02/04 15:48:23;;;;;;;4.87;4.40;;;;;;;8.97;42.60;99819.16;8449763;28;20466;-65
2023/02/04 15:52:26;;;;;;;10.30;8.07;;;;;;;8.80;41.98;99824.47;8448115;28;20225;-65
2023/02/04 15:56:31;;;;;;;13.17;9.33;;;;;;;8.88;41.47;99826.97;8449235;28;20404;-66
2023/02/04 16:00:35;;;;;;;12.63;8.43;;;;;;;8.50;41.45;99788.53;8449012;28;20228;-66
2023/02/04 16:04:40;;;;;;;9.27;7.83;;;;;;;8.69;41.67;99841.75;8449243;28;20232;-66
2023/02/04 16:08:43;;;;;;;6.73;4.67;;;;;;;8.50;41.23;99837.59;8448762;28;20231;-66
2023/02/04 16:12:46;;;;;;;11.03;6.77;;;;;;;8.44;42.04;99832.47;8448737;28;20422;-65
2023/02/04 16:16:50;;;;;;;19.30;12.17;;;;;;;8.16;41.69;99824.81;8448665;28;20234;-66
2023/02/04 16:20:53;;;;;;;7.07;6.37;;;;;;;8.19;42.81;99840.31;8448496;28;20235;-65
2023/02/04 16:24:56;;;;;;;3.13;2.83;;;;;;;8.12;42.58;99842.03;8447080;28;20243;-65
2023/02/04 16:29:01;;;;;;;2.80;1.43;;;;;;;8.05;42.56;99842.06;8448323;28;20231;-65
2023/02/04 16:33:06;;;;;;;1.20;1.10;;;;;;;7.74;43.14;99824.13;8446827;28;20239;-65
2023/02/04 16:37:09;;;;;;;1.80;1.70;;;;;;;7.83;43.27;99849.91;8448193;28;20514;-66
2023/02/04 16:41:13;;;;;;;3.97;2.53;;;;;;;7.70;42.68;99846.50;8446602;28;20234;-65
2023/02/04 16:45:16;;;;;;;7.73;5.77;;;;;;;7.69;42.76;99859.38;8447518;28;20276;-66
2023/02/04 16:49:20;;;;;;;10.00;7.97;;;;;;;7.62;42.75;99849.09;8447668;28;20279;-65
2023/02/04 16:53:23;;;;;;;16.20;13.13;;;;;;;7.62;43.20;99861.97;8448087;28;20340;-66
2023/02/04 16:57:26;;;;;;;7.63;6.90;;;;;;;7.58;43.65;99862.84;8447694;28;20234;-67
2023/02/04 17:01:29;;;;;;;4.13;3.83;;;;;;;6.93;42.45;99759.00;8447474;28;20531;-67
2023/02/04 17:05:33;;;;;;;1.50;1.33;;;;;;;7.50;43.48;99874.03;8447460;28;20253;-67
2023/02/04 17:09:37;;;;;;;1.70;1.60;;;;;;;7.47;43.06;99869.75;8447544;28;20227;-67
2023/02/04 17:13:40;;;;;;;5.93;5.43;;;;;;;7.44;43.28;99875.78;8447239;28;20223;-67
2023/02/04 17:17:42;;;;;;;3.63;2.93;;;;;;;7.35;44.60;99880.06;8446066;28;20444;-67
2023/02/04 17:21:47;;;;;;;5.77;4.00;;;;;;;7.28;44.45;99868.06;8446652;28;20270;-67
2023/02/04 17:25:51;;;;;;;7.33;5.43;;;;;;;7.12;44.42;99878.38;8446855;28;20453;-67
2023/02/04 17:29:54;;;;;;;1.97;1.60;;;;;;;7.07;44.39;99876.66;8450610;28;20586;-67
2023/02/04 17:33:56;;;;;;;2.83;2.20;;;;;;;7.01;44.28;99862.91;8445969;28;20232;-67
2023/02/04 17:38:01;;;;;;;1.50;1.40;;;;;;;6.91;44.76;99875.75;8445973;28;20315;-67
2023/02/04 17:42:04;;;;;;;1.00;1.00;;;;;;;6.90;44.27;99872.34;8446213;28;20237;-66
2023/02/04 17:46:07;;;;;;;1.70;1.60;;;;;;;6.87;44.86;99851.72;8446343;28;20233;-66
2023/02/04 17:50:11;;;;;;;2.90;1.20;;;;;;;6.87;44.50;99863.75;8446124;28;20492;-66
2023/02/04 17:54:15;;;;;;;1.57;1.30;;;;;;;6.91;44.01;99879.22;8445422;28;20231;-66
2023/02/04 17:58:21;;;;;;;6.30;5.57;;;;;;;6.78;44.97;99873.19;8445471;28;20215;-65
2023/02/04 18:02:28;;;;;;;3.30;2.93;;;;;;;6.66;45.25;99870.56;8445454;28;20341;-67
2023/02/04 18:06:31;;;;;;;4.40;4.00;;;;;;;6.67;46.15;99871.44;8445282;28;20234;-67
2023/02/04 18:10:36;;;;;;;5.97;5.37;;;;;;;6.50;45.91;99861.13;8445266;28;20236;-67
2023/02/04 18:14:40;;;;;;;6.47;5.73;;;;;;;6.55;45.62;99873.16;8444891;28;20238;-66
2023/02/04 18:18:43;;;;;;;14.63;10.93;;;;;;;6.47;46.44;99877.38;8444642;28;20223;-67
2023/02/04 18:22:47;;;;;;;12.03;10.77;;;;;;;6.22;47.32;99861.03;8444844;28;20523;-66
2023/02/04 18:26:53;;;;;;;13.07;11.03;;;;;;;6.33;47.50;99863.63;8444595;28;20223;-66
2023/02/04 18:30:57;;;;;;;17.70;13.97;;;;;;;6.25;47.93;99851.59;8444687;28;20246;-67
2023/02/04 18:35:03;;;;;;;28.60;20.00;;;;;;;6.32;47.75;99864.47;8444157;28;20238;-67
2023/02/04 18:39:14;;;;;;;21.13;15.17;;;;;;;6.19;47.80;99863.59;8444444;28;20223;-67
2023/02/04 18:43:26;;;;;;;14.47;11.37;;;;;;;6.14;48.23;99842.13;8443862;28;20230;-67
2023/02/04 18:47:32;;;;;;;12.73;10.87;;;;;;;6.14;48.61;99875.56;8443433;28;20230;-67
2023/02/04 18:51:39;;;;;;;11.80;10.50;;;;;;;5.97;49.08;99870.34;8444044;28;20353;-67
2023/02/04 18:55:43;;;;;;;14.20;12.70;;;;;;;6.21;47.94;99874.75;8443961;28;20530;-67
2023/02/04 18:59:47;;;;;;;12.03;9.93;;;;;;;6.11;48.48;99881.59;8444104;28;20242;-67
2023/02/04 19:03:53;;;;;;;11.13;9.07;;;;;;;6.00;48.74;99886.66;8443140;28;20227;-66
2023/02/04 19:08:17;;;;;;;10.00;8.57;;;;;;;6.07;48.17;99887.53;8443243;28;20246;-66
2023/02/04 19:12:23;;;;;;;13.80;11.77;;;;;;;5.96;48.61;99886.63;8443397;28;20226;-65
2023/02/04 19:16:34;;;;;;;19.13;14.77;;;;;;;5.98;48.88;99888.38;8443231;28;20329;-67